sensor_id;sensor_type;location;lat;lon;timestamp;P1;durP1;ratioP1;P2;durP2;ratioP2
49978;SDS011;35869;50.990;6.962;2022-11-20T00:02:42;16.35;;;10.93;;
49978;SDS011;35869;50.990;6.962;2022-11-20T00:07:42;15.30;;;10.43;;
49978;SDS011;35869;50.990;6.962;2022-11-20T00:12:43;16.80;;;11.13;;
49978;SDS011;35869;50.990;6.962;2022-11-20T00:17:43;18.42;;;10.55;;
49978;SDS011;35869;50.990;6.962;2022-11-20T00:22:43;15.93;;;10.95;;
49978;SDS011;35869;50.990;6.962;2022-11-20T00:27:43;14.25;;;10.07;;
49978;SDS011;35869;50.990;6.962;2022-11-20T00:32:44;13.40;;;8.98;;
49978;SDS011;35869;50.990;6.962;2022-11-20T00:37:44;15.38;;;9.57;;
49978;SDS011;35869;50.990;6.962;2022-11-20T00:42:44;15.40;;;10.05;;
49978;SDS011;35869;50.990;6.962;2022-11-20T00:47:44;13.70;;;10.45;;
49978;SDS011;35869;50.990;6.962;2022-11-20T00:52:44;14.32;;;9.65;;
49978;SDS011;35869;50.990;6.962;2022-11-20T00:57:45;13.98;;;10.02;;
49978;SDS011;35869;50.990;6.962;2022-11-20T01:02:45;14.50;;;10.65;;
49978;SDS011;35869;50.990;6.962;2022-11-20T01:07:45;14.82;;;10.38;;
49978;SDS011;35869;50.990;6.962;2022-11-20T01:12:45;14.73;;;10.35;;
49978;SDS011;35869;50.990;6.962;2022-11-20T01:17:46;16.08;;;10.82;;
49978;SDS011;35869;50.990;6.962;2022-11-20T01:22:46;15.65;;;10.00;;
49978;SDS011;35869;50.990;6.962;2022-11-20T01:27:46;16.35;;;10.65;;
49978;SDS011;35869;50.990;6.962;2022-11-20T01:32:46;15.68;;;10.55;;
49978;SDS011;35869;50.990;6.962;2022-11-20T01:37:47;16.58;;;10.10;;
49978;SDS011;35869;50.990;6.962;2022-11-20T01:42:47;15.27;;;10.75;;
49978;SDS011;35869;50.990;6.962;2022-11-20T01:47:57;15.32;;;10.02;;
49978;SDS011;35869;50.990;6.962;2022-11-20T01:52:59;17.30;;;9.67;;
49978;SDS011;35869;50.990;6.962;2022-11-20T01:58:04;18.35;;;11.25;;
49978;SDS011;35869;50.990;6.962;2022-11-20T02:03:07;14.15;;;10.38;;
49978;SDS011;35869;50.990;6.962;2022-11-20T02:08:09;14.02;;;10.25;;
49978;SDS011;35869;50.990;6.962;2022-11-20T02:13:09;14.93;;;10.15;;
49978;SDS011;35869;50.990;6.962;2022-11-20T02:18:11;16.38;;;10.77;;
49978;SDS011;35869;50.990;6.962;2022-11-20T02:23:19;14.95;;;10.05;;
49978;SDS011;35869;50.990;6.962;2022-11-20T02:28:28;15.18;;;10.55;;
49978;SDS011;35869;50.990;6.962;2022-11-20T02:33:29;16.13;;;9.70;;
49978;SDS011;35869;50.990;6.962;2022-11-20T02:38:29;15.13;;;10.38;;
49978;SDS011;35869;50.990;6.962;2022-11-20T02:43:29;13.43;;;10.38;;
49978;SDS011;35869;50.990;6.962;2022-11-20T02:48:30;15.60;;;10.48;;
49978;SDS011;35869;50.990;6.962;2022-11-20T02:53:30;16.80;;;10.63;;
49978;SDS011;35869;50.990;6.962;2022-11-20T02:58:30;13.05;;;9.73;;
49978;SDS011;35869;50.990;6.962;2022-11-20T03:03:30;12.88;;;10.02;;
49978;SDS011;35869;50.990;6.962;2022-11-20T03:08:31;11.35;;;8.25;;
49978;SDS011;35869;50.990;6.962;2022-11-20T03:13:31;14.40;;;9.52;;
49978;SDS011;35869;50.990;6.962;2022-11-20T03:18:31;12.87;;;10.40;;
49978;SDS011;35869;50.990;6.962;2022-11-20T03:23:33;13.52;;;9.73;;
49978;SDS011;35869;50.990;6.962;2022-11-20T03:28:33;16.42;;;9.73;;
49978;SDS011;35869;50.990;6.962;2022-11-20T03:33:34;16.73;;;11.00;;
49978;SDS011;35869;50.990;6.962;2022-11-20T03:38:34;14.20;;;9.75;;
49978;SDS011;35869;50.990;6.962;2022-11-20T03:43:35;15.33;;;12.20;;
49978;SDS011;35869;50.990;6.962;2022-11-20T03:48:35;15.63;;;10.82;;
49978;SDS011;35869;50.990;6.962;2022-11-20T03:53:36;14.02;;;10.18;;
49978;SDS011;35869;50.990;6.962;2022-11-20T03:58:37;16.97;;;11.80;;
49978;SDS011;35869;50.990;6.962;2022-11-20T04:03:39;16.50;;;10.60;;
49978;SDS011;35869;50.990;6.962;2022-11-20T04:08:40;14.50;;;10.50;;
49978;SDS011;35869;50.990;6.962;2022-11-20T04:13:41;17.13;;;10.63;;
49978;SDS011;35869;50.990;6.962;2022-11-20T04:18:43;14.80;;;10.70;;
49978;SDS011;35869;50.990;6.962;2022-11-20T04:23:43;15.80;;;10.38;;
49978;SDS011;35869;50.990;6.962;2022-11-20T04:28:43;16.13;;;10.65;;
49978;SDS011;35869;50.990;6.962;2022-11-20T04:33:44;18.73;;;11.30;;
49978;SDS011;35869;50.990;6.962;2022-11-20T04:38:45;17.67;;;11.80;;
49978;SDS011;35869;50.990;6.962;2022-11-20T04:43:46;15.97;;;10.97;;
49978;SDS011;35869;50.990;6.962;2022-11-20T04:48:47;18.52;;;11.80;;
49978;SDS011;35869;50.990;6.962;2022-11-20T04:53:47;18.10;;;10.83;;
49978;SDS011;35869;50.990;6.962;2022-11-20T04:58:48;16.17;;;11.17;;
49978;SDS011;35869;50.990;6.962;2022-11-20T05:03:48;16.50;;;10.97;;
49978;SDS011;35869;50.990;6.962;2022-11-20T05:08:48;16.57;;;10.17;;
49978;SDS011;35869;50.990;6.962;2022-11-20T05:13:49;16.30;;;10.70;;
49978;SDS011;35869;50.990;6.962;2022-11-20T05:18:51;14.35;;;10.52;;
49978;SDS011;35869;50.990;6.962;2022-11-20T05:23:53;16.25;;;11.18;;
49978;SDS011;35869;50.990;6.962;2022-11-20T05:28:53;22.95;;;11.10;;
49978;SDS011;35869;50.990;6.962;2022-11-20T05:33:54;15.93;;;10.98;;
49978;SDS011;35869;50.990;6.962;2022-11-20T05:38:55;17.05;;;10.52;;
49978;SDS011;35869;50.990;6.962;2022-11-20T05:43:55;17.13;;;11.57;;
49978;SDS011;35869;50.990;6.962;2022-11-20T05:53:57;22.25;;;13.23;;
49978;SDS011;35869;50.990;6.962;2022-11-20T05:58:57;16.33;;;11.50;;
49978;SDS011;35869;50.990;6.962;2022-11-20T06:03:58;17.00;;;11.98;;
49978;SDS011;35869;50.990;6.962;2022-11-20T06:08:58;20.48;;;12.27;;
49978;SDS011;35869;50.990;6.962;2022-11-20T06:13:58;21.05;;;13.07;;
49978;SDS011;35869;50.990;6.962;2022-11-20T06:18:58;19.30;;;12.95;;
49978;SDS011;35869;50.990;6.962;2022-11-20T06:23:59;15.27;;;10.63;;
49978;SDS011;35869;50.990;6.962;2022-11-20T06:28:59;17.60;;;11.90;;
49978;SDS011;35869;50.990;6.962;2022-11-20T06:33:59;16.93;;;13.47;;
49978;SDS011;35869;50.990;6.962;2022-11-20T06:38:59;16.30;;;11.20;;
49978;SDS011;35869;50.990;6.962;2022-11-20T06:44:00;18.13;;;11.70;;
49978;SDS011;35869;50.990;6.962;2022-11-20T06:49:00;18.33;;;12.27;;
49978;SDS011;35869;50.990;6.962;2022-11-20T06:54:01;19.70;;;12.48;;
49978;SDS011;35869;50.990;6.962;2022-11-20T06:59:03;20.13;;;13.07;;
49978;SDS011;35869;50.990;6.962;2022-11-20T07:04:05;21.75;;;12.02;;
49978;SDS011;35869;50.990;6.962;2022-11-20T07:09:05;24.77;;;14.50;;
49978;SDS011;35869;50.990;6.962;2022-11-20T07:14:05;17.23;;;11.93;;
49978;SDS011;35869;50.990;6.962;2022-11-20T07:19:05;16.88;;;12.82;;
49978;SDS011;35869;50.990;6.962;2022-11-20T07:24:06;18.15;;;13.10;;
49978;SDS011;35869;50.990;6.962;2022-11-20T07:29:06;23.05;;;13.45;;
49978;SDS011;35869;50.990;6.962;2022-11-20T07:34:06;21.10;;;13.75;;
49978;SDS011;35869;50.990;6.962;2022-11-20T07:39:06;20.60;;;14.02;;
49978;SDS011;35869;50.990;6.962;2022-11-20T07:44:06;23.40;;;14.18;;
49978;SDS011;35869;50.990;6.962;2022-11-20T07:49:07;26.35;;;13.43;;
49978;SDS011;35869;50.990;6.962;2022-11-20T07:54:07;18.67;;;12.73;;
49978;SDS011;35869;50.990;6.962;2022-11-20T07:59:07;20.42;;;13.15;;
49978;SDS011;35869;50.990;6.962;2022-11-20T08:04:08;20.50;;;14.23;;
49978;SDS011;35869;50.990;6.962;2022-11-20T08:14:09;21.90;;;15.00;;
49978;SDS011;35869;50.990;6.962;2022-11-20T08:19:09;19.83;;;13.18;;
49978;SDS011;35869;50.990;6.962;2022-11-20T08:29:11;21.50;;;12.45;;
49978;SDS011;35869;50.990;6.962;2022-11-20T08:34:11;22.88;;;13.55;;
49978;SDS011;35869;50.990;6.962;2022-11-20T08:39:12;18.50;;;12.83;;
49978;SDS011;35869;50.990;6.962;2022-11-20T08:44:12;24.23;;;14.98;;
49978;SDS011;35869;50.990;6.962;2022-11-20T08:49:13;16.75;;;10.05;;
49978;SDS011;35869;50.990;6.962;2022-11-20T08:59:14;18.13;;;11.70;;
49978;SDS011;35869;50.990;6.962;2022-11-20T09:04:14;17.00;;;12.23;;
49978;SDS011;35869;50.990;6.962;2022-11-20T09:09:14;17.52;;;11.23;;
49978;SDS011;35869;50.990;6.962;2022-11-20T09:14:15;16.00;;;10.07;;
49978;SDS011;35869;50.990;6.962;2022-11-20T09:19:15;22.08;;;12.00;;
49978;SDS011;35869;50.990;6.962;2022-11-20T09:24:15;18.65;;;11.88;;
49978;SDS011;35869;50.990;6.962;2022-11-20T09:29:15;21.40;;;13.55;;
49978;SDS011;35869;50.990;6.962;2022-11-20T09:34:15;18.00;;;11.82;;
49978;SDS011;35869;50.990;6.962;2022-11-20T09:39:16;20.43;;;12.27;;
49978;SDS011;35869;50.990;6.962;2022-11-20T09:44:32;19.27;;;12.43;;
49978;SDS011;35869;50.990;6.962;2022-11-20T09:54:54;20.27;;;12.65;;
49978;SDS011;35869;50.990;6.962;2022-11-20T09:59:56;20.00;;;13.10;;
49978;SDS011;35869;50.990;6.962;2022-11-20T10:05:11;22.17;;;13.52;;
49978;SDS011;35869;50.990;6.962;2022-11-20T10:10:38;24.17;;;14.77;;
49978;SDS011;35869;50.990;6.962;2022-11-20T10:32:00;19.10;;;11.88;;
49978;SDS011;35869;50.990;6.962;2022-11-20T10:37:06;22.25;;;13.20;;
49978;SDS011;35869;50.990;6.962;2022-11-20T10:42:22;20.40;;;11.65;;
49978;SDS011;35869;50.990;6.962;2022-11-20T10:47:30;22.03;;;13.10;;
49978;SDS011;35869;50.990;6.962;2022-11-20T11:03:14;23.40;;;13.90;;
49978;SDS011;35869;50.990;6.962;2022-11-20T11:08:22;19.85;;;12.82;;
49978;SDS011;35869;50.990;6.962;2022-11-20T11:13:34;19.70;;;13.32;;
49978;SDS011;35869;50.990;6.962;2022-11-20T11:18:35;24.37;;;16.43;;
49978;SDS011;35869;50.990;6.962;2022-11-20T11:23:36;23.70;;;14.67;;
49978;SDS011;35869;50.990;6.962;2022-11-20T11:28:52;25.60;;;14.80;;
49978;SDS011;35869;50.990;6.962;2022-11-20T11:34:16;25.08;;;14.60;;
49978;SDS011;35869;50.990;6.962;2022-11-20T11:39:17;22.70;;;13.57;;
49978;SDS011;35869;50.990;6.962;2022-11-20T11:44:24;22.00;;;14.10;;
49978;SDS011;35869;50.990;6.962;2022-11-20T11:49:30;23.17;;;15.15;;
49978;SDS011;35869;50.990;6.962;2022-11-20T11:59:51;21.10;;;13.23;;
49978;SDS011;35869;50.990;6.962;2022-11-20T12:04:57;19.38;;;12.75;;
49978;SDS011;35869;50.990;6.962;2022-11-20T12:10:00;18.35;;;12.32;;
49978;SDS011;35869;50.990;6.962;2022-11-20T12:15:03;21.20;;;14.10;;
49978;SDS011;35869;50.990;6.962;2022-11-20T12:20:10;22.02;;;13.73;;
49978;SDS011;35869;50.990;6.962;2022-11-20T12:30:24;19.95;;;13.68;;
49978;SDS011;35869;50.990;6.962;2022-11-20T12:45:59;22.00;;;13.73;;
49978;SDS011;35869;50.990;6.962;2022-11-20T13:01:56;22.17;;;13.60;;
49978;SDS011;35869;50.990;6.962;2022-11-20T13:07:06;21.85;;;13.85;;
49978;SDS011;35869;50.990;6.962;2022-11-20T13:12:53;18.10;;;11.82;;
49978;SDS011;35869;50.990;6.962;2022-11-20T13:17:56;23.88;;;14.63;;
49978;SDS011;35869;50.990;6.962;2022-11-20T13:22:59;25.58;;;13.48;;
49978;SDS011;35869;50.990;6.962;2022-11-20T13:28:00;23.23;;;14.23;;
49978;SDS011;35869;50.990;6.962;2022-11-20T13:33:05;22.10;;;13.30;;
49978;SDS011;35869;50.990;6.962;2022-11-20T13:43:34;21.55;;;12.98;;
49978;SDS011;35869;50.990;6.962;2022-11-20T13:48:41;18.17;;;12.70;;
49978;SDS011;35869;50.990;6.962;2022-11-20T14:04:35;21.23;;;12.55;;
49978;SDS011;35869;50.990;6.962;2022-11-20T14:09:52;19.20;;;11.52;;
49978;SDS011;35869;50.990;6.962;2022-11-20T14:14:56;17.08;;;12.15;;
49978;SDS011;35869;50.990;6.962;2022-11-20T14:19:58;18.37;;;12.13;;
49978;SDS011;35869;50.990;6.962;2022-11-20T14:25:03;18.10;;;12.50;;
49978;SDS011;35869;50.990;6.962;2022-11-20T14:30:05;17.83;;;12.38;;
49978;SDS011;35869;50.990;6.962;2022-11-20T14:40:27;16.90;;;12.05;;
49978;SDS011;35869;50.990;6.962;2022-11-20T14:45:28;19.55;;;12.05;;
49978;SDS011;35869;50.990;6.962;2022-11-20T14:50:29;18.83;;;12.57;;
49978;SDS011;35869;50.990;6.962;2022-11-20T14:55:36;21.83;;;13.97;;
49978;SDS011;35869;50.990;6.962;2022-11-20T15:00:37;23.23;;;13.02;;
49978;SDS011;35869;50.990;6.962;2022-11-20T15:05:45;23.25;;;13.25;;
49978;SDS011;35869;50.990;6.962;2022-11-20T15:10:48;20.13;;;12.35;;
49978;SDS011;35869;50.990;6.962;2022-11-20T15:15:50;20.45;;;12.57;;
49978;SDS011;35869;50.990;6.962;2022-11-20T15:20:54;20.88;;;12.45;;
49978;SDS011;35869;50.990;6.962;2022-11-20T15:25:56;21.60;;;13.23;;
49978;SDS011;35869;50.990;6.962;2022-11-20T15:30:56;23.03;;;14.20;;
49978;SDS011;35869;50.990;6.962;2022-11-20T15:35:57;20.87;;;13.90;;
49978;SDS011;35869;50.990;6.962;2022-11-20T15:40:57;22.97;;;14.73;;
49978;SDS011;35869;50.990;6.962;2022-11-20T15:46:16;26.90;;;17.60;;
49978;SDS011;35869;50.990;6.962;2022-11-20T15:56:28;30.58;;;16.33;;
49978;SDS011;35869;50.990;6.962;2022-11-20T16:01:28;28.23;;;17.05;;
49978;SDS011;35869;50.990;6.962;2022-11-20T16:06:29;28.77;;;16.97;;
49978;SDS011;35869;50.990;6.962;2022-11-20T16:11:29;26.02;;;17.20;;
49978;SDS011;35869;50.990;6.962;2022-11-20T16:21:31;27.73;;;17.92;;
49978;SDS011;35869;50.990;6.962;2022-11-20T16:26:32;25.35;;;17.52;;
49978;SDS011;35869;50.990;6.962;2022-11-20T16:36:34;38.58;;;20.52;;
49978;SDS011;35869;50.990;6.962;2022-11-20T16:41:34;35.63;;;22.42;;
49978;SDS011;35869;50.990;6.962;2022-11-20T16:46:34;35.13;;;18.67;;
49978;SDS011;35869;50.990;6.962;2022-11-20T16:51:35;25.80;;;16.23;;
49978;SDS011;35869;50.990;6.962;2022-11-20T16:56:35;28.63;;;17.23;;
49978;SDS011;35869;50.990;6.962;2022-11-20T17:01:36;29.42;;;17.13;;
49978;SDS011;35869;50.990;6.962;2022-11-20T17:06:37;20.23;;;12.85;;
49978;SDS011;35869;50.990;6.962;2022-11-20T17:11:39;20.38;;;12.68;;
49978;SDS011;35869;50.990;6.962;2022-11-20T17:16:40;21.80;;;12.43;;
49978;SDS011;35869;50.990;6.962;2022-11-20T17:21:40;17.52;;;11.75;;
49978;SDS011;35869;50.990;6.962;2022-11-20T17:26:41;21.13;;;12.70;;
49978;SDS011;35869;50.990;6.962;2022-11-20T17:31:43;29.63;;;17.02;;
49978;SDS011;35869;50.990;6.962;2022-11-20T17:36:43;24.55;;;12.50;;
49978;SDS011;35869;50.990;6.962;2022-11-20T17:41:44;25.25;;;11.65;;
49978;SDS011;35869;50.990;6.962;2022-11-20T17:46:45;15.68;;;10.30;;
49978;SDS011;35869;50.990;6.962;2022-11-20T17:51:45;23.85;;;11.50;;
49978;SDS011;35869;50.990;6.962;2022-11-20T17:56:45;11.98;;;8.68;;
49978;SDS011;35869;50.990;6.962;2022-11-20T18:01:45;17.13;;;9.68;;
49978;SDS011;35869;50.990;6.962;2022-11-20T18:06:46;10.53;;;8.13;;
49978;SDS011;35869;50.990;6.962;2022-11-20T18:11:46;11.32;;;7.18;;
49978;SDS011;35869;50.990;6.962;2022-11-20T18:16:47;9.88;;;7.57;;
49978;SDS011;35869;50.990;6.962;2022-11-20T18:21:49;12.88;;;7.07;;
49978;SDS011;35869;50.990;6.962;2022-11-20T18:26:49;11.23;;;9.03;;
49978;SDS011;35869;50.990;6.962;2022-11-20T18:31:50;10.47;;;7.80;;
49978;SDS011;35869;50.990;6.962;2022-11-20T18:36:50;11.38;;;8.80;;
49978;SDS011;35869;50.990;6.962;2022-11-20T18:41:50;14.25;;;10.25;;
49978;SDS011;35869;50.990;6.962;2022-11-20T18:46:51;12.57;;;9.18;;
49978;SDS011;35869;50.990;6.962;2022-11-20T18:51:51;10.87;;;9.73;;
49978;SDS011;35869;50.990;6.962;2022-11-20T18:56:51;15.20;;;8.95;;
49978;SDS011;35869;50.990;6.962;2022-11-20T19:01:52;10.80;;;6.82;;
49978;SDS011;35869;50.990;6.962;2022-11-20T19:06:52;11.38;;;7.15;;
49978;SDS011;35869;50.990;6.962;2022-11-20T19:11:52;12.25;;;8.73;;
49978;SDS011;35869;50.990;6.962;2022-11-20T19:16:52;9.90;;;7.32;;
49978;SDS011;35869;50.990;6.962;2022-11-20T19:21:53;13.95;;;8.75;;
49978;SDS011;35869;50.990;6.962;2022-11-20T19:26:53;11.97;;;6.37;;
49978;SDS011;35869;50.990;6.962;2022-11-20T19:31:54;15.23;;;7.43;;
49978;SDS011;35869;50.990;6.962;2022-11-20T19:36:54;12.93;;;6.57;;
49978;SDS011;35869;50.990;6.962;2022-11-20T19:41:54;16.92;;;6.95;;
49978;SDS011;35869;50.990;6.962;2022-11-20T19:46:54;14.75;;;7.07;;
49978;SDS011;35869;50.990;6.962;2022-11-20T19:51:55;14.60;;;8.00;;
49978;SDS011;35869;50.990;6.962;2022-11-20T19:56:55;11.07;;;6.38;;
49978;SDS011;35869;50.990;6.962;2022-11-20T20:01:55;10.02;;;5.70;;
49978;SDS011;35869;50.990;6.962;2022-11-20T20:06:55;11.93;;;5.72;;
49978;SDS011;35869;50.990;6.962;2022-11-20T20:16:57;11.73;;;5.43;;
49978;SDS011;35869;50.990;6.962;2022-11-20T20:21:57;14.90;;;6.40;;
49978;SDS011;35869;50.990;6.962;2022-11-20T20:26:57;18.25;;;7.55;;
49978;SDS011;35869;50.990;6.962;2022-11-20T20:31:58;10.95;;;5.80;;
49978;SDS011;35869;50.990;6.962;2022-11-20T20:36:58;10.40;;;3.92;;
49978;SDS011;35869;50.990;6.962;2022-11-20T20:41:58;15.25;;;4.43;;
49978;SDS011;35869;50.990;6.962;2022-11-20T20:46:58;14.27;;;5.03;;
49978;SDS011;35869;50.990;6.962;2022-11-20T20:51:58;11.23;;;3.83;;
49978;SDS011;35869;50.990;6.962;2022-11-20T20:56:59;13.48;;;3.42;;
49978;SDS011;35869;50.990;6.962;2022-11-20T21:01:59;11.02;;;4.10;;
49978;SDS011;35869;50.990;6.962;2022-11-20T21:06:59;11.35;;;4.22;;
49978;SDS011;35869;50.990;6.962;2022-11-20T21:11:59;12.63;;;3.97;;
49978;SDS011;35869;50.990;6.962;2022-11-20T21:17:00;13.48;;;3.55;;
49978;SDS011;35869;50.990;6.962;2022-11-20T21:22:00;13.88;;;3.88;;
49978;SDS011;35869;50.990;6.962;2022-11-20T21:27:01;6.05;;;2.90;;
49978;SDS011;35869;50.990;6.962;2022-11-20T21:32:03;11.20;;;2.85;;
49978;SDS011;35869;50.990;6.962;2022-11-20T21:37:03;10.97;;;3.37;;
49978;SDS011;35869;50.990;6.962;2022-11-20T21:42:03;10.73;;;3.00;;
49978;SDS011;35869;50.990;6.962;2022-11-20T21:47:04;5.47;;;2.40;;
49978;SDS011;35869;50.990;6.962;2022-11-20T21:52:04;6.90;;;3.58;;
49978;SDS011;35869;50.990;6.962;2022-11-20T21:57:04;15.57;;;3.60;;
49978;SDS011;35869;50.990;6.962;2022-11-20T22:02:04;8.88;;;3.63;;
49978;SDS011;35869;50.990;6.962;2022-11-20T22:07:05;11.38;;;4.18;;
49978;SDS011;35869;50.990;6.962;2022-11-20T22:12:05;13.07;;;4.10;;
49978;SDS011;35869;50.990;6.962;2022-11-20T22:17:05;9.90;;;4.03;;
49978;SDS011;35869;50.990;6.962;2022-11-20T22:22:12;10.73;;;3.33;;
49978;SDS011;35869;50.990;6.962;2022-11-20T22:27:12;8.55;;;3.65;;
49978;SDS011;35869;50.990;6.962;2022-11-20T22:32:13;5.93;;;3.20;;
49978;SDS011;35869;50.990;6.962;2022-11-20T22:37:13;5.97;;;3.42;;
49978;SDS011;35869;50.990;6.962;2022-11-20T22:42:13;10.05;;;4.15;;
49978;SDS011;35869;50.990;6.962;2022-11-20T22:47:13;17.17;;;5.47;;
49978;SDS011;35869;50.990;6.962;2022-11-20T22:52:13;20.23;;;4.78;;
49978;SDS011;35869;50.990;6.962;2022-11-20T22:57:14;12.23;;;6.00;;
49978;SDS011;35869;50.990;6.962;2022-11-20T23:02:14;14.57;;;4.68;;
49978;SDS011;35869;50.990;6.962;2022-11-20T23:07:14;12.65;;;4.72;;
49978;SDS011;35869;50.990;6.962;2022-11-20T23:12:14;11.52;;;4.07;;
49978;SDS011;35869;50.990;6.962;2022-11-20T23:17:15;11.80;;;5.13;;
49978;SDS011;35869;50.990;6.962;2022-11-20T23:22:15;10.63;;;4.82;;
49978;SDS011;35869;50.990;6.962;2022-11-20T23:27:15;19.33;;;5.90;;
49978;SDS011;35869;50.990;6.962;2022-11-20T23:32:15;17.70;;;5.57;;
49978;SDS011;35869;50.990;6.962;2022-11-20T23:37:15;12.50;;;5.70;;
49978;SDS011;35869;50.990;6.962;2022-11-20T23:42:16;20.52;;;6.57;;
49978;SDS011;35869;50.990;6.962;2022-11-20T23:47:16;13.55;;;5.50;;
49978;SDS011;35869;50.990;6.962;2022-11-20T23:52:16;17.52;;;5.75;;
49978;SDS011;35869;50.990;6.962;2022-11-20T23:57:16;12.23;;;4.78;;
